Time;durP1;ratioP1;P1;durP2;ratioP2;P2;SDS_P1;SDS_P2;PMS_P1;PMS_P2;Temp;Humidity;BMP_temperature;BMP_pressure;BME280_temperature;BME280_humidity;BME280_pressure;Samples;Min_cycle;Max_cycle;Signal;HPM_P1;HPM_P2
2023/05/05 00:01:15;;;;;;;5.10;3.30;;;;;;;;;;4996655;28;20464;-78
2023/05/05 00:03:41;;;;;;;4.77;4.10;;;;;;;;;;4980938;28;20407;-77
2023/05/05 00:06:07;;;;;;;3.83;3.43;;;;;;;;;;4980972;28;20389;-77
2023/05/05 00:08:33;;;;;;;3.93;3.63;;;;;;;;;;4980880;28;20509;-77
2023/05/05 00:10:59;;;;;;;4.97;3.80;;;;;;;;;;4980656;28;20402;-77
2023/05/05 00:13:25;;;;;;;4.07;3.73;;;;;;;;;;5014524;28;20820;-77
2023/05/05 00:15:52;;;;;;;5.10;4.60;;;;;;;;;;4996569;28;20384;-79
2023/05/05 00:18:19;;;;;;;4.37;3.60;;;;;;;;;;5014367;28;20384;-77
2023/05/05 00:20:46;;;;;;;4.97;3.33;;;;;;;;;;4997065;28;20454;-77
2023/05/05 00:23:12;;;;;;;5.17;3.80;;;;;;;;;;4996679;28;20809;-78
2023/05/05 00:25:38;;;;;;;3.93;3.60;;;;;;;;;;4997061;28;20464;-77
2023/05/05 00:28:04;;;;;;;4.30;3.90;;;;;;;;;;5014363;28;20773;-77
2023/05/05 00:30:30;;;;;;;7.00;4.77;;;;;;;;;;4996752;28;20413;-77
2023/05/05 00:32:56;;;;;;;6.10;4.00;;;;;;;;;;5014060;28;20531;-77
2023/05/05 00:35:22;;;;;;;3.97;3.57;;;;;;;;;;5014554;28;20874;-77
2023/05/05 00:37:48;;;;;;;5.10;4.63;;;;;;;;;;5014429;28;20410;-77
2023/05/05 00:40:16;;;;;;;4.40;3.70;;;;;;;;;;4996534;28;20487;-77
2023/05/05 00:42:46;;;;;;;4.90;4.50;;;;;;;;;;4980411;28;20408;-77
2023/05/05 00:45:13;;;;;;;4.27;3.87;;;;;;;;;;4996163;28;20508;-77
2023/05/05 00:47:40;;;;;;;4.77;4.27;;;;;;;;;;4996563;28;20392;-77
2023/05/05 00:50:09;;;;;;;6.70;4.40;;;;;;;;;;5013599;28;20410;-77
2023/05/05 00:52:36;;;;;;;5.83;4.33;;;;;;;;;;4996379;28;20457;-77
2023/05/05 00:55:03;;;;;;;4.83;4.27;;;;;;;;;;4996150;28;20393;-77
2023/05/05 00:57:29;;;;;;;4.77;4.37;;;;;;;;;;4996878;28;20868;-77
2023/05/05 00:59:56;;;;;;;5.47;4.50;;;;;;;;;;4980134;28;20418;-77
2023/05/05 01:02:22;;;;;;;4.70;4.10;;;;;;;;;;4995813;28;20493;-77
2023/05/05 01:04:48;;;;;;;5.63;4.50;;;;;;;;;;4999257;28;20398;-77
2023/05/05 01:07:29;;;;;;;4.43;4.03;;;;;;;;;;5000633;28;20808;-77
2023/05/05 01:10:10;;;;;;;4.93;4.40;;;;;;;;;;4999694;28;20461;-78
2023/05/05 01:12:39;;;;;;;5.40;3.70;;;;;;;;;;5000443;28;20431;-77
2023/05/05 01:15:06;;;;;;;8.00;4.43;;;;;;;;;;5000127;28;20480;-77
2023/05/05 01:17:36;;;;;;;4.50;4.10;;;;;;;;;;5000271;28;20892;-78
2023/05/05 01:20:10;;;;;;;6.13;4.43;;;;;;;;;;5000421;28;20417;-77
2023/05/05 01:22:42;;;;;;;5.60;5.20;;;;;;;;;;5000112;28;20473;-77
2023/05/05 01:25:14;;;;;;;5.20;4.70;;;;;;;;;;4999862;28;20907;-77
2023/05/05 01:27:49;;;;;;;6.10;5.50;;;;;;;;;;5017780;28;20414;-77
2023/05/05 01:30:45;;;;;;;7.17;5.33;;;;;;;;;;5017528;28;20383;-77
2023/05/05 01:33:13;;;;;;;8.03;5.37;;;;;;;;;;4999876;28;20899;-77
2023/05/05 01:35:42;;;;;;;5.97;5.27;;;;;;;;;;5000105;28;20388;-77
2023/05/05 01:38:11;;;;;;;6.20;5.23;;;;;;;;;;5000151;28;20896;-77
2023/05/05 01:40:39;;;;;;;5.30;4.80;;;;;;;;;;5000351;28;20481;-77
2023/05/05 01:43:07;;;;;;;6.40;5.00;;;;;;;;;;5017336;28;20480;-77
2023/05/05 01:45:35;;;;;;;4.73;4.33;;;;;;;;;;4999945;28;20392;-77
2023/05/05 01:48:01;;;;;;;6.20;5.20;;;;;;;;;;4999895;28;20459;-77
2023/05/05 01:50:28;;;;;;;5.67;5.00;;;;;;;;;;5000088;28;20443;-77
2023/05/05 01:52:55;;;;;;;6.20;4.87;;;;;;;;;;4983927;28;20911;-77
2023/05/05 01:55:24;;;;;;;6.40;5.73;;;;;;;;;;5017425;28;20412;-77
2023/05/05 01:57:50;;;;;;;6.17;5.57;;;;;;;;;;5017717;28;20561;-77
2023/05/05 02:00:18;;;;;;;8.13;5.83;;;;;;;;;;4999506;28;20912;-77
2023/05/05 02:02:48;;;;;;;9.03;5.60;;;;;;;;;;5017634;28;20473;-77
2023/05/05 02:05:18;;;;;;;6.63;5.90;;;;;;;;;;4999642;28;20414;-77
2023/05/05 02:07:44;;;;;;;6.47;5.43;;;;;;;;;;4999834;28;20393;-77
2023/05/05 02:10:12;;;;;;;6.20;5.60;;;;;;;;;;4999476;28;20505;-77
2023/05/05 02:12:39;;;;;;;5.70;5.10;;;;;;;;;;5017395;28;20406;-77
2023/05/05 02:15:05;;;;;;;6.30;5.70;;;;;;;;;;5016641;28;20493;-77
2023/05/05 02:17:32;;;;;;;6.60;6.00;;;;;;;;;;4999585;28;20413;-77
2023/05/05 02:19:58;;;;;;;6.53;5.80;;;;;;;;;;5017628;28;20392;-77
2023/05/05 02:22:24;;;;;;;6.73;6.00;;;;;;;;;;4999906;28;20795;-77
2023/05/05 02:24:50;;;;;;;8.60;6.30;;;;;;;;;;5017188;28;20380;-77
2023/05/05 02:27:18;;;;;;;7.23;6.53;;;;;;;;;;4983003;28;20414;-77
2023/05/05 02:29:47;;;;;;;7.20;6.60;;;;;;;;;;5017267;28;20461;-77
2023/05/05 02:32:25;;;;;;;13.53;6.03;;;;;;;;;;5016949;28;20449;-77
2023/05/05 02:34:52;;;;;;;6.93;5.83;;;;;;;;;;4999691;28;20426;-77
2023/05/05 02:37:21;;;;;;;7.87;6.50;;;;;;;;;;5016575;28;20397;-77
2023/05/05 02:39:57;;;;;;;10.03;6.60;;;;;;;;;;5016606;28;20461;-77
2023/05/05 02:42:25;;;;;;;7.60;6.90;;;;;;;;;;4998889;28;20444;-77
2023/05/05 02:44:53;;;;;;;7.90;7.10;;;;;;;;;;4999234;28;20396;-76
2023/05/05 02:47:20;;;;;;;6.90;6.30;;;;;;;;;;5015955;28;20468;-77
2023/05/05 02:49:46;;;;;;;8.17;6.57;;;;;;;;;;5016754;28;20403;-77
2023/05/05 02:52:13;;;;;;;10.40;6.37;;;;;;;;;;4998854;28;20388;-77
2023/05/05 02:54:39;;;;;;;13.30;6.20;;;;;;;;;;4999054;28;20830;-77
2023/05/05 02:57:05;;;;;;;9.27;6.90;;;;;;;;;;4999255;28;20737;-77
2023/05/05 02:59:48;;;;;;;7.83;7.13;;;;;;;;;;4998838;28;20410;-77
2023/05/05 03:02:17;;;;;;;7.50;6.60;;;;;;;;;;5016223;28;20464;-77
2023/05/05 03:05:22;;;;;;;8.40;7.00;;;;;;;;;;4998736;28;20512;-77
2023/05/05 03:08:03;;;;;;;6.20;5.60;;;;;;;;;;4920689;29;20400;-77
2023/05/05 03:10:30;;;;;;;8.60;7.70;;;;;;;;;;4936580;29;20418;-77
2023/05/05 03:13:01;;;;;;;12.30;7.17;;;;;;;;;;4982498;28;20396;-77
2023/05/05 03:15:31;;;;;;;8.80;6.80;;;;;;;;;;5016309;28;20371;-77
2023/05/05 03:17:58;;;;;;;8.00;6.43;;;;;;;;;;4998408;28;20396;-77
2023/05/05 03:20:25;;;;;;;10.67;7.37;;;;;;;;;;4998275;28;20424;-77
2023/05/05 03:22:51;;;;;;;8.60;6.77;;;;;;;;;;5015693;28;20404;-77
2023/05/05 03:25:18;;;;;;;8.57;7.50;;;;;;;;;;4998998;28;20915;-77
2023/05/05 03:27:44;;;;;;;8.20;7.23;;;;;;;;;;4997968;28;20520;-77
2023/05/05 03:30:10;;;;;;;11.30;7.10;;;;;;;;;;5015674;28;20413;-77
2023/05/05 03:32:36;;;;;;;11.70;7.20;;;;;;;;;;4997968;28;20412;-77
2023/05/05 03:35:02;;;;;;;11.23;7.27;;;;;;;;;;4982185;28;20401;-77
2023/05/05 03:37:28;;;;;;;8.00;7.13;;;;;;;;;;4998001;28;20822;-77
2023/05/05 03:39:54;;;;;;;12.00;8.00;;;;;;;;;;4998422;28;20911;-77
2023/05/05 03:42:20;;;;;;;9.80;8.47;;;;;;;;;;5015744;28;20465;-77
2023/05/05 03:44:46;;;;;;;9.63;7.20;;;;;;;;;;4998039;28;20404;-77
2023/05/05 03:47:12;;;;;;;8.70;7.17;;;;;;;;;;5015763;28;20804;-77
2023/05/05 03:49:38;;;;;;;8.07;7.23;;;;;;;;;;4998064;28;20422;-77
2023/05/05 03:52:04;;;;;;;17.67;8.43;;;;;;;;;;5015390;28;20387;-81
2023/05/05 03:54:30;;;;;;;14.97;8.93;;;;;;;;;;4998326;28;20863;-77
2023/05/05 03:56:57;;;;;;;9.10;6.70;;;;;;;;;;4981665;28;20512;-76
2023/05/05 03:59:23;;;;;;;8.50;7.70;;;;;;;;;;4997991;28;20388;-76
2023/05/05 04:01:49;;;;;;;9.47;8.47;;;;;;;;;;5015178;28;20824;-77
2023/05/05 04:04:15;;;;;;;9.03;7.40;;;;;;;;;;4997268;28;20400;-76
2023/05/05 04:06:41;;;;;;;10.07;7.70;;;;;;;;;;4997624;28;20385;-79
2023/05/05 04:09:07;;;;;;;12.27;8.67;;;;;;;;;;4997216;28;20730;-77
2023/05/05 04:11:33;;;;;;;15.13;8.00;;;;;;;;;;5015252;28;20461;-77
2023/05/05 04:13:59;;;;;;;8.33;7.43;;;;;;;;;;5015597;28;20402;-76
2023/05/05 04:16:25;;;;;;;9.20;8.27;;;;;;;;;;4997842;28;20473;-79
2023/05/05 04:18:51;;;;;;;10.70;8.30;;;;;;;;;;4997986;28;20402;-79
2023/05/05 04:21:17;;;;;;;17.53;9.70;;;;;;;;;;4997248;28;20440;-80
2023/05/05 04:23:43;;;;;;;13.53;7.90;;;;;;;;;;4997370;28;20402;-79
2023/05/05 04:26:10;;;;;;;12.33;9.33;;;;;;;;;;5014629;28;20395;-77
2023/05/05 04:28:36;;;;;;;16.47;9.93;;;;;;;;;;4984598;28;20429;-77
2023/05/05 04:31:03;;;;;;;14.23;9.67;;;;;;;;;;5000365;28;20436;-77
2023/05/05 04:33:29;;;;;;;10.97;8.27;;;;;;;;;;5014869;28;20410;-77
2023/05/05 04:35:55;;;;;;;11.60;8.30;;;;;;;;;;5003271;28;20905;-77
2023/05/05 04:38:21;;;;;;;10.27;8.10;;;;;;;;;;5012604;28;20910;-77
2023/05/05 04:40:47;;;;;;;14.67;8.90;;;;;;;;;;5015376;28;20448;-77
2023/05/05 04:43:13;;;;;;;11.33;9.67;;;;;;;;;;4980931;28;20396;-77
2023/05/05 04:45:39;;;;;;;11.43;9.00;;;;;;;;;;5014856;28;20476;-77
2023/05/05 04:48:05;;;;;;;13.00;8.53;;;;;;;;;;4996871;28;20743;-77
2023/05/05 04:50:32;;;;;;;10.10;8.47;;;;;;;;;;4996950;28;20439;-77
2023/05/05 04:52:58;;;;;;;9.33;7.03;;;;;;;;;;4996742;28;20412;-77
2023/05/05 04:55:24;;;;;;;13.53;9.20;;;;;;;;;;4980712;28;20423;-77
2023/05/05 04:57:50;;;;;;;10.73;8.07;;;;;;;;;;4997248;28;20457;-77
2023/05/05 05:00:16;;;;;;;9.47;7.77;;;;;;;;;;5014423;28;20440;-77
2023/05/05 05:02:42;;;;;;;12.70;8.97;;;;;;;;;;4996393;28;20464;-77
2023/05/05 05:05:08;;;;;;;11.13;8.47;;;;;;;;;;4997090;28;20483;-79
2023/05/05 05:07:34;;;;;;;15.03;9.03;;;;;;;;;;5014801;28;20413;-77
2023/05/05 05:10:00;;;;;;;14.50;9.13;;;;;;;;;;4996896;28;20414;-77
2023/05/05 05:12:26;;;;;;;10.73;9.33;;;;;;;;;;4996587;28;20463;-77
2023/05/05 05:14:52;;;;;;;9.70;8.43;;;;;;;;;;5014113;28;20422;-77
2023/05/05 05:17:21;;;;;;;13.30;9.33;;;;;;;;;;4997241;28;20881;-77
2023/05/05 05:19:47;;;;;;;19.87;9.60;;;;;;;;;;4980749;28;20425;-77
2023/05/05 05:22:13;;;;;;;10.80;9.17;;;;;;;;;;4996998;28;20462;-77
2023/05/05 05:24:39;;;;;;;13.10;9.30;;;;;;;;;;5014016;28;20409;-77
2023/05/05 05:27:07;;;;;;;12.53;10.27;;;;;;;;;;5014651;28;20380;-77
2023/05/05 05:29:34;;;;;;;10.30;9.20;;;;;;;;;;4996716;28;20743;-77
2023/05/05 05:32:00;;;;;;;13.10;9.20;;;;;;;;;;5014489;28;20425;-77
2023/05/05 05:34:26;;;;;;;12.23;9.30;;;;;;;;;;4996614;28;20453;-77
2023/05/05 05:36:52;;;;;;;11.97;10.30;;;;;;;;;;5014654;28;20380;-77
2023/05/05 05:39:18;;;;;;;11.90;9.40;;;;;;;;;;4980330;28;20509;-77
2023/05/05 05:41:44;;;;;;;15.23;9.00;;;;;;;;;;5013734;28;20461;-77
2023/05/05 05:44:10;;;;;;;12.23;9.87;;;;;;;;;;5014281;28;20439;-77
2023/05/05 05:46:36;;;;;;;12.07;9.93;;;;;;;;;;4996444;28;20422;-77
2023/05/05 05:49:02;;;;;;;12.27;9.80;;;;;;;;;;4980283;28;20456;-77
2023/05/05 05:51:29;;;;;;;12.20;9.33;;;;;;;;;;5017485;28;20388;-77
2023/05/05 05:53:55;;;;;;;11.97;10.70;;;;;;;;;;5018276;28;20811;-76
2023/05/05 05:56:21;;;;;;;21.43;9.93;;;;;;;;;;5000652;28;20462;-77
2023/05/05 05:58:47;;;;;;;18.87;10.40;;;;;;;;;;5000272;28;20910;-77
2023/05/05 06:01:14;;;;;;;11.93;10.63;;;;;;;;;;5017543;28;20632;-78
2023/05/05 06:03:40;;;;;;;14.37;9.90;;;;;;;;;;4982940;28;20410;-77
2023/05/05 06:06:06;;;;;;;13.20;9.60;;;;;;;;;;5000294;28;20791;-77
2023/05/05 06:08:32;;;;;;;14.73;10.53;;;;;;;;;;4983815;28;20759;-77
2023/05/05 06:10:59;;;;;;;15.50;10.40;;;;;;;;;;4999871;28;20392;-77
2023/05/05 06:13:25;;;;;;;11.63;10.30;;;;;;;;;;5017450;28;20414;-77
2023/05/05 06:15:51;;;;;;;12.17;10.13;;;;;;;;;;5000500;28;20460;-77
2023/05/05 06:18:17;;;;;;;13.80;9.90;;;;;;;;;;5000043;28;20418;-77
2023/05/05 06:20:43;;;;;;;15.03;10.70;;;;;;;;;;4997458;28;20411;-77
2023/05/05 06:23:09;;;;;;;17.20;10.40;;;;;;;;;;5017436;28;20387;-77
2023/05/05 06:25:36;;;;;;;14.33;9.97;;;;;;;;;;4999815;28;20397;-77
2023/05/05 06:28:04;;;;;;;18.10;9.93;;;;;;;;;;4998702;28;21078;-78
2023/05/05 06:30:30;;;;;;;19.10;11.60;;;;;;;;;;5017236;28;20388;-77
2023/05/05 06:32:56;;;;;;;13.20;9.93;;;;;;;;;;5000025;28;20917;-76
2023/05/05 06:35:23;;;;;;;18.97;10.10;;;;;;;;;;4983685;28;20388;-77
2023/05/05 06:37:49;;;;;;;13.23;11.73;;;;;;;;;;5029791;28;20821;-77
2023/05/05 06:40:15;;;;;;;12.90;9.80;;;;;;;;;;5018260;28;20413;-78
2023/05/05 06:42:41;;;;;;;17.70;9.90;;;;;;;;;;5019629;28;20490;-77
2023/05/05 06:45:07;;;;;;;14.70;9.70;;;;;;;;;;5002864;28;20403;-77
2023/05/05 06:47:33;;;;;;;13.20;10.30;;;;;;;;;;5019389;28;20412;-77
2023/05/05 06:49:59;;;;;;;20.07;10.70;;;;;;;;;;5019237;28;20388;-77
2023/05/05 06:52:25;;;;;;;15.60;9.53;;;;;;;;;;5036582;28;20467;-78
2023/05/05 06:54:51;;;;;;;21.47;11.57;;;;;;;;;;5036988;28;20885;-77
2023/05/05 06:57:17;;;;;;;16.53;10.57;;;;;;;;;;5002483;28;20521;-78
2023/05/05 06:59:43;;;;;;;16.63;11.80;;;;;;;;;;5002444;28;20424;-78
2023/05/05 07:02:09;;;;;;;16.63;13.00;;;;;;;;;;5016370;28;20467;-77
2023/05/05 07:04:36;;;;;;;17.07;11.33;;;;;;;;;;5036377;28;20812;-77
2023/05/05 07:07:01;;;;;;;15.33;12.00;;;;;;;;;;5036341;28;20368;-78
2023/05/05 07:09:27;;;;;;;17.50;11.70;;;;;;;;;;5036210;28;20390;-78
2023/05/05 07:11:53;;;;;;;17.60;13.03;;;;;;;;;;5002454;28;20428;-77
2023/05/05 07:14:19;;;;;;;14.90;12.37;;;;;;;;;;5017413;28;20417;-77
2023/05/05 07:16:45;;;;;;;15.13;12.07;;;;;;;;;;5036029;28;20898;-78
2023/05/05 07:19:11;;;;;;;15.87;13.27;;;;;;;;;;5018969;28;20416;-77
2023/05/05 07:21:38;;;;;;;13.97;11.43;;;;;;;;;;5035751;28;20460;-78
2023/05/05 07:24:04;;;;;;;18.17;12.50;;;;;;;;;;5018937;28;20409;-77
2023/05/05 07:26:31;;;;;;;16.70;12.97;;;;;;;;;;5018226;28;20475;-77
2023/05/05 07:28:57;;;;;;;13.50;11.83;;;;;;;;;;5018201;28;20392;-77
2023/05/05 07:31:24;;;;;;;13.80;11.80;;;;;;;;;;5018344;28;20532;-77
2023/05/05 07:33:50;;;;;;;13.90;11.93;;;;;;;;;;5036035;28;20412;-77
2023/05/05 07:36:17;;;;;;;16.50;14.07;;;;;;;;;;5018305;28;20735;-77
2023/05/05 07:38:43;;;;;;;15.83;13.10;;;;;;;;;;5018440;28;20534;-77
2023/05/05 07:41:10;;;;;;;16.10;14.00;;;;;;;;;;5035897;28;20543;-77
2023/05/05 07:43:37;;;;;;;14.30;12.87;;;;;;;;;;5035281;28;20405;-77
2023/05/05 07:46:03;;;;;;;14.47;12.93;;;;;;;;;;5035369;28;20750;-77
2023/05/05 07:48:29;;;;;;;15.57;13.50;;;;;;;;;;5001526;28;20417;-77
2023/05/05 07:50:55;;;;;;;20.87;13.77;;;;;;;;;;5017622;28;20413;-77
2023/05/05 07:53:21;;;;;;;15.63;14.00;;;;;;;;;;5017867;28;20415;-77
2023/05/05 07:55:47;;;;;;;16.63;13.93;;;;;;;;;;5017680;28;20413;-79
2023/05/05 07:58:13;;;;;;;21.60;13.73;;;;;;;;;;5001393;28;20428;-79
2023/05/05 08:00:39;;;;;;;19.50;13.70;;;;;;;;;;5000718;28;20491;-79
2023/05/05 08:03:05;;;;;;;20.30;12.80;;;;;;;;;;5034965;28;20397;-79
2023/05/05 08:05:31;;;;;;;13.53;11.87;;;;;;;;;;5034787;28;20403;-78
2023/05/05 08:07:57;;;;;;;14.73;13.13;;;;;;;;;;5034732;28;20902;-79
2023/05/05 08:10:23;;;;;;;15.63;12.20;;;;;;;;;;5034975;28;20410;-79
2023/05/05 08:12:50;;;;;;;16.70;12.80;;;;;;;;;;5017071;28;20480;-79
2023/05/05 08:15:16;;;;;;;13.83;11.73;;;;;;;;;;5034974;28;20417;-79
2023/05/05 08:17:50;;;;;;;14.43;12.90;;;;;;;;;;5016691;28;20445;-78
2023/05/05 08:20:16;;;;;;;14.90;12.67;;;;;;;;;;5034816;28;20412;-79
2023/05/05 08:22:43;;;;;;;16.40;14.07;;;;;;;;;;5016797;28;20800;-79
2023/05/05 08:25:09;;;;;;;16.40;12.13;;;;;;;;;;5034930;28;20425;-78
2023/05/05 08:27:36;;;;;;;21.87;14.33;;;;;;;;;;5016629;28;20527;-79
2023/05/05 08:30:03;;;;;;;17.20;13.33;;;;;;;;;;5034785;28;20528;-79
2023/05/05 08:32:29;;;;;;;18.27;13.37;;;;;;;;;;5016682;28;20837;-79
2023/05/05 08:34:55;;;;;;;15.47;12.20;;;;;;;;;;5034663;28;20432;-79
2023/05/05 08:37:21;;;;;;;15.20;13.47;;;;;;;;;;5000616;28;20779;-83
2023/05/05 08:39:47;;;;;;;14.27;12.33;;;;;;;;;;5034520;28;20401;-79
2023/05/05 08:42:13;;;;;;;15.90;13.43;;;;;;;;;;5016479;28;20572;-80
2023/05/05 08:44:39;;;;;;;14.50;12.40;;;;;;;;;;5016564;28;20412;-76
2023/05/05 08:47:06;;;;;;;15.10;13.50;;;;;;;;;;5034741;28;20413;-79
2023/05/05 08:49:39;;;;;;;14.03;12.60;;;;;;;;;;5016145;28;20421;-77
2023/05/05 08:52:08;;;;;;;18.90;14.07;;;;;;;;;;5016553;28;20548;-77
2023/05/05 08:54:37;;;;;;;16.57;14.00;;;;;;;;;;5034210;28;20416;-77
2023/05/05 08:57:06;;;;;;;14.63;13.13;;;;;;;;;;5027070;28;20503;-77
2023/05/05 08:59:32;;;;;;;16.40;12.87;;;;;;;;;;5032280;28;20417;-77
2023/05/05 09:01:58;;;;;;;16.20;12.90;;;;;;;;;;5016271;28;20493;-77
2023/05/05 09:04:25;;;;;;;17.00;15.20;;;;;;;;;;5016206;28;20424;-77
2023/05/05 09:06:51;;;;;;;15.77;13.90;;;;;;;;;;5000051;28;20905;-77
2023/05/05 09:09:17;;;;;;;15.80;14.30;;;;;;;;;;5000298;28;20475;-77
2023/05/05 09:11:44;;;;;;;19.80;14.50;;;;;;;;;;5016424;28;20420;-77
2023/05/05 09:14:11;;;;;;;17.10;15.03;;;;;;;;;;4999923;28;20900;-77
2023/05/05 09:16:41;;;;;;;16.07;13.97;;;;;;;;;;5015748;28;20428;-78
2023/05/05 09:19:07;;;;;;;19.07;15.20;;;;;;;;;;5016174;28;20417;-77
2023/05/05 09:21:33;;;;;;;17.03;15.30;;;;;;;;;;5015568;28;20937;-77
2023/05/05 09:24:06;;;;;;;16.37;14.87;;;;;;;;;;5033517;28;20420;-77
2023/05/05 09:26:36;;;;;;;15.27;13.80;;;;;;;;;;5036205;28;20923;-78
2023/05/05 09:29:03;;;;;;;16.07;13.47;;;;;;;;;;5036864;28;20404;-77
2023/05/05 09:31:32;;;;;;;15.17;13.67;;;;;;;;;;5037189;28;20433;-78
2023/05/05 09:34:03;;;;;;;16.17;14.37;;;;;;;;;;5019205;28;20497;-78
2023/05/05 09:36:46;;;;;;;14.97;13.23;;;;;;;;;;5019109;28;20413;-77
2023/05/05 09:39:12;;;;;;;12.77;11.53;;;;;;;;;;5019423;28;20424;-78
2023/05/05 09:41:39;;;;;;;15.53;14.10;;;;;;;;;;5018679;28;20452;-77
2023/05/05 09:44:06;;;;;;;14.30;11.00;;;;;;;;;;5019043;28;20424;-77
2023/05/05 09:46:32;;;;;;;16.00;11.87;;;;;;;;;;5036453;28;20409;-77
2023/05/05 09:49:16;;;;;;;14.03;11.67;;;;;;;;;;5036587;28;20751;-77
2023/05/05 09:51:42;;;;;;;13.70;12.30;;;;;;;;;;5036502;28;20404;-78
2023/05/05 09:54:08;;;;;;;14.43;11.90;;;;;;;;;;5036621;28;20484;-77
2023/05/05 09:56:39;;;;;;;15.67;10.90;;;;;;;;;;5036112;28;20843;-78
2023/05/05 09:59:11;;;;;;;11.90;10.40;;;;;;;;;;5018690;28;20416;-78
2023/05/05 10:01:38;;;;;;;12.67;11.37;;;;;;;;;;5018051;28;20874;-77
2023/05/05 10:04:04;;;;;;;17.93;12.47;;;;;;;;;;5036481;28;20449;-77
2023/05/05 10:06:40;;;;;;;13.60;11.47;;;;;;;;;;5036121;28;20416;-77
2023/05/05 10:09:06;;;;;;;14.20;12.17;;;;;;;;;;5036269;28;20405;-77
2023/05/05 10:11:33;;;;;;;15.57;11.43;;;;;;;;;;5036340;28;20480;-77
2023/05/05 10:13:59;;;;;;;10.90;9.80;;;;;;;;;;5018448;28;20409;-77
2023/05/05 10:16:27;;;;;;;12.70;11.00;;;;;;;;;;5036151;28;20409;-78
2023/05/05 10:18:54;;;;;;;10.77;9.67;;;;;;;;;;5018330;28;20467;-79
2023/05/05 10:21:20;;;;;;;15.40;10.93;;;;;;;;;;5018369;28;20468;-78
2023/05/05 10:24:06;;;;;;;11.33;10.13;;;;;;;;;;5035859;28;20532;-78
2023/05/05 10:26:34;;;;;;;11.77;10.57;;;;;;;;;;5035768;28;20512;-79
2023/05/05 10:29:02;;;;;;;11.70;9.93;;;;;;;;;;5018391;28;20424;-79
2023/05/05 10:31:36;;;;;;;12.10;10.10;;;;;;;;;;5017937;28;20901;-81
2023/05/05 10:34:03;;;;;;;12.90;11.50;;;;;;;;;;5035804;28;20401;-78
2023/05/05 10:36:30;;;;;;;12.57;10.00;;;;;;;;;;5017672;28;20483;-80
2023/05/05 10:38:56;;;;;;;11.63;10.53;;;;;;;;;;5035684;28;20405;-78
2023/05/05 10:41:23;;;;;;;15.60;9.17;;;;;;;;;;5001520;28;20483;-79
2023/05/05 10:43:51;;;;;;;11.40;9.60;;;;;;;;;;5035567;28;20422;-81
2023/05/05 10:46:17;;;;;;;8.47;7.70;;;;;;;;;;5035778;28;20855;-79
2023/05/05 10:48:54;;;;;;;10.47;9.37;;;;;;;;;;5017749;28;20413;-79
2023/05/05 10:51:26;;;;;;;13.50;10.60;;;;;;;;;;5017910;28;20508;-80
2023/05/05 10:54:00;;;;;;;19.07;11.40;;;;;;;;;;5017874;28;20416;-84
2023/05/05 10:56:34;;;;;;;16.60;11.90;;;;;;;;;;5036062;28;20423;-86
2023/05/05 10:59:00;;;;;;;15.17;11.40;;;;;;;;;;5036358;28;20376;-87
2023/05/05 11:01:31;;;;;;;16.07;11.23;;;;;;;;;;5001579;28;20947;-85
2023/05/05 11:04:36;;;;;;;10.93;9.00;;;;;;;;;;5017975;28;20396;-86
2023/05/05 11:07:08;;;;;;;10.17;8.40;;;;;;;;;;4956139;29;20432;-84
2023/05/05 11:09:40;;;;;;;14.33;8.70;;;;;;;;;;4955122;29;20822;-85
2023/05/05 11:12:07;;;;;;;8.83;7.40;;;;;;;;;;5000168;28;20504;-84
2023/05/05 11:14:33;;;;;;;13.23;8.37;;;;;;;;;;5017952;28;20456;-85
2023/05/05 11:16:59;;;;;;;8.93;7.20;;;;;;;;;;5001525;28;20483;-84
2023/05/05 11:19:58;;;;;;;10.70;7.23;;;;;;;;;;5017576;28;20448;-84
2023/05/05 11:22:24;;;;;;;8.40;6.47;;;;;;;;;;4974843;28;20472;-84
2023/05/05 11:24:50;;;;;;;12.33;7.53;;;;;;;;;;5017406;28;20414;-84
2023/05/05 11:27:16;;;;;;;7.97;7.00;;;;;;;;;;5017703;28;20391;-84
2023/05/05 11:30:00;;;;;;;11.80;8.07;;;;;;;;;;5017450;28;20901;-84
2023/05/05 11:32:26;;;;;;;8.80;7.97;;;;;;;;;;5038795;28;20396;-83
2023/05/05 11:34:52;;;;;;;8.33;6.60;;;;;;;;;;5035030;28;20424;-82
2023/05/05 11:37:22;;;;;;;6.17;5.10;;;;;;;;;;5035157;28;20379;-82
2023/05/05 11:40:10;;;;;;;9.63;7.50;;;;;;;;;;5016980;28;20417;-82
2023/05/05 11:42:37;;;;;;;15.90;8.17;;;;;;;;;;5034854;28;20427;-82
2023/05/05 11:45:18;;;;;;;9.37;8.50;;;;;;;;;;5017867;28;20401;-82
2023/05/05 11:47:44;;;;;;;11.30;8.13;;;;;;;;;;5034263;28;20422;-82
2023/05/05 11:50:18;;;;;;;11.93;7.57;;;;;;;;;;5035061;28;20479;-81
2023/05/05 11:52:44;;;;;;;8.53;7.73;;;;;;;;;;5016731;28;20504;-80
2023/05/05 11:55:10;;;;;;;8.77;7.67;;;;;;;;;;5034640;28;20411;-80
2023/05/05 11:57:36;;;;;;;10.83;7.57;;;;;;;;;;5034727;28;20405;-81
2023/05/05 12:00:02;;;;;;;9.13;7.23;;;;;;;;;;5017455;28;20504;-80
2023/05/05 12:02:30;;;;;;;6.27;5.30;;;;;;;;;;5034481;28;20484;-80
2023/05/05 12:04:56;;;;;;;7.83;4.73;;;;;;;;;;5034221;28;20820;-80
2023/05/05 12:07:32;;;;;;;7.30;5.33;;;;;;;;;;5034571;28;20412;-80
2023/05/05 12:09:58;;;;;;;6.63;5.53;;;;;;;;;;5016541;28;20928;-79
2023/05/05 12:12:34;;;;;;;5.97;4.97;;;;;;;;;;5016939;28;20420;-79
2023/05/05 12:15:00;;;;;;;5.97;4.67;;;;;;;;;;5016972;28;20564;-78
2023/05/05 12:17:35;;;;;;;6.87;4.57;;;;;;;;;;5034479;28;20415;-78
2023/05/05 12:20:01;;;;;;;5.90;5.30;;;;;;;;;;5016905;28;20375;-79
2023/05/05 12:22:27;;;;;;;6.63;5.60;;;;;;;;;;5016363;28;20472;-79
2023/05/05 12:25:01;;;;;;;6.23;4.40;;;;;;;;;;5016822;28;20766;-79
2023/05/05 12:27:27;;;;;;;4.77;4.27;;;;;;;;;;5016340;28;20446;-79
2023/05/05 12:29:54;;;;;;;9.87;5.00;;;;;;;;;;5016203;28;20416;-79
2023/05/05 12:32:21;;;;;;;8.63;4.00;;;;;;;;;;5016030;28;20803;-79
2023/05/05 12:34:47;;;;;;;5.90;4.40;;;;;;;;;;5016085;28;21015;-79
2023/05/05 12:37:15;;;;;;;5.53;3.80;;;;;;;;;;5016033;28;20467;-79
2023/05/05 12:39:41;;;;;;;9.63;4.70;;;;;;;;;;5033820;28;20429;-79
2023/05/05 12:42:07;;;;;;;5.10;4.60;;;;;;;;;;5033801;28;20475;-79
2023/05/05 12:44:40;;;;;;;5.70;4.93;;;;;;;;;;5016383;28;20463;-79
2023/05/05 12:47:06;;;;;;;5.67;5.07;;;;;;;;;;5016157;28;20414;-79
2023/05/05 12:49:44;;;;;;;6.27;5.00;;;;;;;;;;5016551;28;20412;-80
2023/05/05 12:52:10;;;;;;;7.43;6.40;;;;;;;;;;5033864;28;20393;-80
2023/05/05 12:54:50;;;;;;;5.70;5.07;;;;;;;;;;5015470;28;20567;-84
2023/05/05 12:57:16;;;;;;;5.63;5.03;;;;;;;;;;5033857;28;20396;-79
2023/05/05 12:59:42;;;;;;;6.53;5.27;;;;;;;;;;5014872;28;20471;-80
2023/05/05 13:02:08;;;;;;;6.83;5.27;;;;;;;;;;5033196;28;20476;-80
2023/05/05 13:04:47;;;;;;;6.20;5.30;;;;;;;;;;5033606;28;20413;-80
2023/05/05 13:07:13;;;;;;;7.93;5.87;;;;;;;;;;5033518;28;20725;-81
2023/05/05 13:09:41;;;;;;;7.57;5.63;;;;;;;;;;5033860;28;20469;-81
2023/05/05 13:12:10;;;;;;;7.57;4.77;;;;;;;;;;5016120;28;20432;-80
2023/05/05 13:14:36;;;;;;;6.27;5.03;;;;;;;;;;5016199;28;20432;-80
2023/05/05 13:17:02;;;;;;;7.93;6.37;;;;;;;;;;5015703;28;20448;-80
2023/05/05 13:19:28;;;;;;;6.50;5.40;;;;;;;;;;5033506;28;20419;-80
2023/05/05 13:21:55;;;;;;;6.07;5.43;;;;;;;;;;5015761;28;20968;-80
2023/05/05 13:24:21;;;;;;;8.33;5.07;;;;;;;;;;5016107;28;20432;-80
2023/05/05 13:26:48;;;;;;;8.90;5.73;;;;;;;;;;5015444;28;20420;-81
2023/05/05 13:29:15;;;;;;;6.00;4.50;;;;;;;;;;5033493;28;20463;-81
2023/05/05 13:31:41;;;;;;;4.30;3.50;;;;;;;;;;5015198;28;20543;-81
2023/05/05 13:34:07;;;;;;;4.03;3.20;;;;;;;;;;5033461;28;20421;-80
2023/05/05 13:36:33;;;;;;;4.10;2.30;;;;;;;;;;5015798;28;20402;-80
2023/05/05 13:38:59;;;;;;;4.00;2.40;;;;;;;;;;4998728;28;20424;-81
2023/05/05 13:41:26;;;;;;;7.03;2.60;;;;;;;;;;4998646;28;20469;-81
2023/05/05 13:43:52;;;;;;;4.83;3.17;;;;;;;;;;5014835;28;20421;-80
2023/05/05 13:46:18;;;;;;;6.67;3.50;;;;;;;;;;5032957;28;20420;-80
2023/05/05 13:48:44;;;;;;;2.90;2.07;;;;;;;;;;5015279;28;20429;-81
2023/05/05 13:51:10;;;;;;;8.23;2.73;;;;;;;;;;5015455;28;20399;-80
2023/05/05 13:53:36;;;;;;;3.50;2.50;;;;;;;;;;5033008;28;20901;-80
2023/05/05 13:56:02;;;;;;;3.87;2.30;;;;;;;;;;5015253;28;20413;-80
2023/05/05 13:58:28;;;;;;;3.50;2.53;;;;;;;;;;5033149;28;20436;-79
2023/05/05 14:00:55;;;;;;;3.87;2.50;;;;;;;;;;5014736;28;20496;-79
2023/05/05 14:03:22;;;;;;;3.83;2.50;;;;;;;;;;5015829;28;20461;-79
2023/05/05 14:05:49;;;;;;;7.27;2.60;;;;;;;;;;5032513;28;20453;-80
2023/05/05 14:08:17;;;;;;;5.50;2.70;;;;;;;;;;5015281;28;20391;-79
2023/05/05 14:10:43;;;;;;;5.27;2.70;;;;;;;;;;5008171;28;20435;-79
2023/05/05 14:13:09;;;;;;;4.43;2.43;;;;;;;;;;5019081;28;20503;-80
2023/05/05 14:15:35;;;;;;;4.63;2.40;;;;;;;;;;5036337;28;20380;-81
2023/05/05 14:18:01;;;;;;;4.37;2.30;;;;;;;;;;5035929;28;20397;-84
2023/05/05 14:20:28;;;;;;;2.10;1.60;;;;;;;;;;5031988;28;20519;-87
2023/05/05 14:22:55;;;;;;;4.77;2.10;;;;;;;;;;5015400;28;20464;-89
2023/05/05 14:25:21;;;;;;;5.43;1.93;;;;;;;;;;5019229;28;20457;-88
2023/05/05 14:27:47;;;;;;;4.60;2.13;;;;;;;;;;5033971;28;20723;-88
2023/05/05 14:30:13;;;;;;;4.63;2.10;;;;;;;;;;5018514;28;20904;-86
2023/05/05 14:32:39;;;;;;;7.33;2.40;;;;;;;;;;5033343;28;20507;-85
2023/05/05 14:35:06;;;;;;;6.70;3.20;;;;;;;;;;5035010;28;20432;-84